createdAt,value
2023-03-29T00:00:26.863Z,2.78
2023-03-29T00:02:56.863Z,2.63
2023-03-29T00:05:26.543Z,2.92
2023-03-29T00:08:01.949Z,2.90
2023-03-29T00:10:31.432Z,2.83
2023-03-29T00:13:00.912Z,3.05
2023-03-29T00:15:30.370Z,3.17
2023-03-29T00:17:59.821Z,2.42
2023-03-29T00:20:29.180Z,3.05
2023-03-29T00:22:58.592Z,3.15
2023-03-29T00:25:28.016Z,2.83
2023-03-29T00:27:57.395Z,3.15
2023-03-29T00:30:26.780Z,2.60
2023-03-29T00:32:56.219Z,3.28
2023-03-29T00:35:25.866Z,2.85
2023-03-29T00:37:57.413Z,3.10
2023-03-29T00:40:26.809Z,2.75
2023-03-29T00:42:57.076Z,3.00
2023-03-29T00:45:30.537Z,3.20
2023-03-29T00:48:04.522Z,3.25
2023-03-29T00:51:03.308Z,3.03
2023-03-29T00:53:34.731Z,2.90
2023-03-29T00:56:06.688Z,2.72
2023-03-29T00:58:56.461Z,3.38
2023-03-29T01:01:39.121Z,3.63
2023-03-29T01:04:29.676Z,3.78
2023-03-29T01:07:13.247Z,3.03
2023-03-29T01:09:45.102Z,3.28
2023-03-29T01:12:17.605Z,3.28
2023-03-29T01:14:55.192Z,3.00
2023-03-29T01:17:25.628Z,3.25
2023-03-29T01:20:00.222Z,2.97
2023-03-29T01:22:39.715Z,2.97
2023-03-29T01:25:12.690Z,2.97
2023-03-29T01:27:54.983Z,2.60
2023-03-29T01:30:29.135Z,2.92
2023-03-29T01:33:10.333Z,3.05
2023-03-29T01:35:48.550Z,3.17
2023-03-29T01:38:43.400Z,2.90
2023-03-29T01:41:13.481Z,3.00
2023-03-29T01:43:48.695Z,3.22
2023-03-29T01:46:21.919Z,3.42
2023-03-29T01:48:54.279Z,2.80
2023-03-29T01:51:27.106Z,3.08
2023-03-29T01:54:01.823Z,2.53
2023-03-29T01:56:32.727Z,3.38
2023-03-29T01:59:07.022Z,2.70
2023-03-29T02:01:39.307Z,3.20
2023-03-29T02:04:13.389Z,2.72
2023-03-29T02:06:43.773Z,2.67
2023-03-29T02:09:13.269Z,3.13
2023-03-29T02:11:44.526Z,2.78
2023-03-29T02:14:14.106Z,2.72
2023-03-29T02:16:45.600Z,3.10
2023-03-29T02:19:15.598Z,3.03
2023-03-29T02:21:53.539Z,2.80
2023-03-29T02:24:24.929Z,2.80
2023-03-29T02:26:54.499Z,3.60
2023-03-29T02:29:23.915Z,2.90
2023-03-29T02:31:56.439Z,2.92
2023-03-29T02:34:29.169Z,3.30
2023-03-29T02:37:01.612Z,2.78
2023-03-29T02:39:33.884Z,2.63
2023-03-29T02:42:04.649Z,2.80
2023-03-29T02:44:36.614Z,2.80
2023-03-29T02:47:09.249Z,2.92
2023-03-29T02:49:38.640Z,3.22
2023-03-29T02:52:11.990Z,2.38
2023-03-29T02:54:43.262Z,3.03
2023-03-29T02:57:13.589Z,2.97
2023-03-29T02:59:44.849Z,3.13
2023-03-29T03:02:15.186Z,2.95
2023-03-29T03:04:45.176Z,2.70
2023-03-29T03:07:14.805Z,3.25
2023-03-29T03:09:44.220Z,2.67
2023-03-29T03:12:13.701Z,3.35
2023-03-29T03:14:43.373Z,3.35
2023-03-29T03:17:13.732Z,2.63
2023-03-29T03:19:43.551Z,3.13
2023-03-29T03:22:13.892Z,3.33
2023-03-29T03:24:43.376Z,3.00
2023-03-29T03:27:14.024Z,2.30
2023-03-29T03:29:44.205Z,3.17
2023-03-29T03:32:32.096Z,3.00
2023-03-29T03:35:27.555Z,3.25
2023-03-29T03:37:56.976Z,3.33
2023-03-29T03:40:28.309Z,3.25
2023-03-29T03:42:57.946Z,3.30
2023-03-29T03:45:27.623Z,2.83
2023-03-29T03:48:17.785Z,3.42
2023-03-29T03:51:10.363Z,2.85
2023-03-29T03:53:39.837Z,3.03
2023-03-29T03:56:30.062Z,3.92
2023-03-29T03:59:18.199Z,3.40
2023-03-29T04:02:00.521Z,3.03
2023-03-29T04:04:30.999Z,2.85
2023-03-29T04:07:14.494Z,3.63
2023-03-29T04:10:08.882Z,2.67
2023-03-29T04:12:44.247Z,3.65
2023-03-29T04:15:13.755Z,3.13
2023-03-29T04:17:51.837Z,2.70
2023-03-29T04:20:21.320Z,3.53
2023-03-29T04:22:51.339Z,4.60
2023-03-29T04:25:21.758Z,3.53
2023-03-29T04:27:52.065Z,3.70
2023-03-29T04:30:32.947Z,2.78
2023-03-29T04:33:21.334Z,3.20
2023-03-29T04:35:57.271Z,3.63
2023-03-29T04:38:26.951Z,3.25
2023-03-29T04:40:57.739Z,2.85
2023-03-29T04:43:38.431Z,2.90
2023-03-29T04:46:17.851Z,3.15
2023-03-29T04:49:06.236Z,3.22
2023-03-29T04:54:08.237Z,3.05
2023-03-29T04:56:56.864Z,2.92
2023-03-29T04:59:58.956Z,3.03
2023-03-29T05:02:48.823Z,2.55
2023-03-29T05:05:18.420Z,3.40
2023-03-29T05:07:49.841Z,3.13
2023-03-29T05:10:23.697Z,3.03
2023-03-29T05:12:54.323Z,2.65
2023-03-29T05:15:25.565Z,3.05
2023-03-29T05:17:55.160Z,2.60
2023-03-29T05:20:25.176Z,3.33
2023-03-29T05:22:59.952Z,3.13
2023-03-29T05:25:53.332Z,3.50
2023-03-29T05:28:22.932Z,2.90
2023-03-29T05:31:04.591Z,3.22
2023-03-29T05:33:39.278Z,2.70
2023-03-29T05:36:11.209Z,2.60
2023-03-29T05:38:47.273Z,3.20
2023-03-29T05:41:18.027Z,3.17
2023-03-29T05:44:06.461Z,2.88
2023-03-29T05:46:36.233Z,3.20
2023-03-29T05:49:06.667Z,3.03
2023-03-29T05:51:52.132Z,2.95
2023-03-29T05:54:21.719Z,2.60
2023-03-29T05:56:51.423Z,2.92
2023-03-29T05:59:21.222Z,2.92
2023-03-29T06:01:52.122Z,2.85
2023-03-29T06:04:24.739Z,2.70
2023-03-29T06:07:12.900Z,2.92
2023-03-29T06:09:45.814Z,3.00
2023-03-29T06:12:15.212Z,2.95
2023-03-29T06:14:52.068Z,2.95
2023-03-29T06:17:29.450Z,2.85
2023-03-29T06:19:58.905Z,3.00
2023-03-29T06:22:30.958Z,3.17
2023-03-29T06:25:00.365Z,2.58
2023-03-29T06:27:34.278Z,2.78
2023-03-29T06:30:04.223Z,3.33
2023-03-29T06:32:33.902Z,3.72
2023-03-29T06:35:08.267Z,3.63
2023-03-29T06:37:49.617Z,3.85
2023-03-29T06:40:27.521Z,2.90
2023-03-29T06:43:00.618Z,3.17
2023-03-29T06:45:31.253Z,3.45
2023-03-29T06:48:03.306Z,2.80
2023-03-29T06:50:34.360Z,3.35
2023-03-29T06:53:12.536Z,3.63
2023-03-29T06:55:44.117Z,3.47
2023-03-29T06:58:29.733Z,3.30
2023-03-29T07:01:05.096Z,3.50
2023-03-29T07:03:47.731Z,3.80
2023-03-29T07:06:20.773Z,3.65
2023-03-29T07:08:52.645Z,3.75
2023-03-29T07:12:02.663Z,3.15
2023-03-29T07:14:32.129Z,3.40
2023-03-29T07:17:01.598Z,2.95
2023-03-29T07:19:36.359Z,3.67
2023-03-29T07:22:25.674Z,3.78
2023-03-29T07:25:00.232Z,3.53
2023-03-29T07:27:29.629Z,3.45
2023-03-29T07:29:59.582Z,3.40
2023-03-29T07:32:29.163Z,3.40
2023-03-29T07:35:13.407Z,3.58
2023-03-29T07:37:44.674Z,3.70
2023-03-29T07:40:16.423Z,4.10
2023-03-29T07:43:11.939Z,3.58
2023-03-29T07:45:44.846Z,4.07
2023-03-29T07:48:15.627Z,4.15
2023-03-29T07:50:54.471Z,4.25
2023-03-29T07:53:29.789Z,3.53
2023-03-29T07:56:01.076Z,3.50
2023-03-29T07:58:48.389Z,3.63
2023-03-29T08:01:20.088Z,3.28
2023-03-29T08:04:16.029Z,4.18
2023-03-29T08:07:04.060Z,3.35
2023-03-29T08:10:03.372Z,3.63
2023-03-29T08:13:07.465Z,3.20
2023-03-29T08:16:12.544Z,3.58
2023-03-29T08:18:49.459Z,3.30
2023-03-29T08:21:19.517Z,3.88
2023-03-29T08:23:52.151Z,4.85
2023-03-29T08:26:28.746Z,3.50
2023-03-29T08:29:00.886Z,3.42
2023-03-29T08:31:30.871Z,3.20
2023-03-29T08:34:00.441Z,3.42
2023-03-29T08:36:48.239Z,3.72
2023-03-29T08:39:27.040Z,3.22
2023-03-29T08:42:25.783Z,4.28
2023-03-29T08:45:08.516Z,3.43
2023-03-29T08:47:46.874Z,3.90
2023-03-29T08:50:17.284Z,3.92
2023-03-29T08:52:50.490Z,4.95
2023-03-29T08:55:43.343Z,4.47
2023-03-29T08:58:45.121Z,3.60
2023-03-29T09:01:14.969Z,3.47
2023-03-29T09:04:12.578Z,3.35
2023-03-29T09:06:50.915Z,3.70
2023-03-29T09:09:25.702Z,3.88
2023-03-29T09:12:08.852Z,3.17
2023-03-29T09:14:46.447Z,3.67
2023-03-29T09:17:21.732Z,3.67
2023-03-29T09:19:59.764Z,4.50
2023-03-29T09:22:37.511Z,3.47
2023-03-29T09:25:10.054Z,3.65
2023-03-29T09:27:45.914Z,3.60
2023-03-29T09:30:35.755Z,3.85
2023-03-29T09:33:14.399Z,4.20
2023-03-29T09:36:04.679Z,3.63
2023-03-29T09:38:39.820Z,4.03
2023-03-29T09:41:21.201Z,3.25
2023-03-29T09:43:52.599Z,4.15
2023-03-29T09:46:30.446Z,4.05
2023-03-29T09:49:00.039Z,3.88
2023-03-29T09:51:31.107Z,3.42
2023-03-29T09:54:01.237Z,4.53
2023-03-29T09:56:42.081Z,4.55
2023-03-29T09:59:15.638Z,4.15
2023-03-29T10:01:47.717Z,4.22
2023-03-29T10:04:18.937Z,3.88
2023-03-29T10:06:55.417Z,3.22
2023-03-29T10:09:27.194Z,3.67
2023-03-29T10:12:08.192Z,3.70
2023-03-29T10:14:43.708Z,4.43
2023-03-29T10:17:34.351Z,3.67
2023-03-29T10:20:08.834Z,3.92
2023-03-29T10:22:41.755Z,3.33
2023-03-29T10:25:18.655Z,4.25
2023-03-29T10:27:49.562Z,3.50
2023-03-29T10:30:24.093Z,3.90
2023-03-29T10:33:01.090Z,4.97
2023-03-29T10:35:35.890Z,3.80
2023-03-29T10:38:07.856Z,3.80
2023-03-29T10:40:37.991Z,4.45
2023-03-29T10:43:22.496Z,4.60
2023-03-29T10:45:53.918Z,4.55
2023-03-29T10:48:27.908Z,4.10
2023-03-29T10:51:00.605Z,4.68
2023-03-29T10:53:31.894Z,4.05
2023-03-29T10:56:01.599Z,4.00
2023-03-29T10:58:38.637Z,4.88
2023-03-29T11:01:08.353Z,4.40
2023-03-29T11:03:47.573Z,4.63
2023-03-29T11:06:24.844Z,4.53
2023-03-29T11:08:57.538Z,4.32
2023-03-29T11:11:44.522Z,5.05
2023-03-29T11:14:25.179Z,4.55
2023-03-29T11:17:00.284Z,4.97
2023-03-29T11:19:48.453Z,4.72
2023-03-29T11:22:35.937Z,4.15
2023-03-29T11:25:08.445Z,4.13
2023-03-29T11:27:41.906Z,4.68
2023-03-29T11:30:24.164Z,4.32
2023-03-29T11:33:13.107Z,4.10
2023-03-29T11:36:04.462Z,3.85
2023-03-29T11:38:45.222Z,4.47
2023-03-29T11:41:33.010Z,4.40
2023-03-29T11:44:07.576Z,4.22
2023-03-29T11:46:40.877Z,4.80
2023-03-29T11:49:30.993Z,4.68
2023-03-29T11:52:14.456Z,4.43
2023-03-29T11:54:59.113Z,4.60
2023-03-29T11:57:28.859Z,5.00
2023-03-29T12:00:05.472Z,5.85
2023-03-29T12:02:50.114Z,4.90
2023-03-29T12:05:27.551Z,4.80
2023-03-29T12:08:03.870Z,4.72
2023-03-29T12:10:44.874Z,3.80
2023-03-29T12:13:17.273Z,4.60
2023-03-29T12:18:20.779Z,4.28
2023-03-29T12:20:52.925Z,4.63
2023-03-29T12:26:16.462Z,4.07
2023-03-29T12:29:05.705Z,5.03
2023-03-29T12:31:43.412Z,4.60
2023-03-29T12:34:34.309Z,4.45
2023-03-29T12:37:11.080Z,4.38
2023-03-29T12:40:19.941Z,4.75
2023-03-29T12:46:23.505Z,3.85
2023-03-29T12:48:57.416Z,3.60
2023-03-29T12:51:34.665Z,4.82
2023-03-29T12:54:08.370Z,4.25
2023-03-29T12:56:42.184Z,3.80
2023-03-29T12:59:23.877Z,4.15
2023-03-29T13:02:22.723Z,3.95
2023-03-29T13:04:54.054Z,4.00
2023-03-29T13:07:26.582Z,4.38
2023-03-29T13:09:57.041Z,4.57
2023-03-29T13:12:42.413Z,4.40
2023-03-29T13:15:17.920Z,4.68
2023-03-29T13:17:56.692Z,5.30
2023-03-29T13:20:32.442Z,4.43
2023-03-29T13:23:20.861Z,4.35
2023-03-29T13:25:50.256Z,4.20
2023-03-29T13:28:19.685Z,4.32
2023-03-29T13:31:09.422Z,3.95
2023-03-29T13:33:46.582Z,4.05
2023-03-29T13:36:34.653Z,3.50
2023-03-29T13:39:07.111Z,3.70
2023-03-29T13:41:36.482Z,3.92
2023-03-29T13:44:05.903Z,3.15
2023-03-29T13:46:41.099Z,3.45
2023-03-29T13:49:22.530Z,2.90
2023-03-29T13:52:09.116Z,5.18
2023-03-29T13:54:42.171Z,3.40
2023-03-29T13:57:11.644Z,3.30
2023-03-29T13:59:45.859Z,2.90
2023-03-29T14:02:22.747Z,3.40
2023-03-29T14:04:53.894Z,3.17
2023-03-29T14:07:26.530Z,2.78
2023-03-29T14:09:58.287Z,2.67
2023-03-29T14:12:28.746Z,2.67
2023-03-29T14:15:02.148Z,2.80
2023-03-29T14:17:31.658Z,2.63
2023-03-29T14:20:02.240Z,2.72
2023-03-29T14:22:36.545Z,2.70
2023-03-29T14:25:09.857Z,2.33
2023-03-29T14:27:39.433Z,2.40
2023-03-29T14:30:27.335Z,2.20
2023-03-29T14:32:57.146Z,2.40
2023-03-29T14:35:31.469Z,1.80
2023-03-29T14:38:01.726Z,2.45
2023-03-29T14:40:34.123Z,1.98
2023-03-29T14:45:34.904Z,2.35
2023-03-29T14:48:04.937Z,1.92
2023-03-29T14:50:34.879Z,2.10
2023-03-29T14:53:04.444Z,2.33
2023-03-29T14:55:34.442Z,2.20
2023-03-29T14:58:04.523Z,2.30
2023-03-29T15:00:44.420Z,2.22
2023-03-29T15:03:17.921Z,2.15
2023-03-29T15:05:51.779Z,2.38
2023-03-29T15:08:26.347Z,2.90
2023-03-29T15:10:55.763Z,3.20
2023-03-29T15:13:26.523Z,3.55
2023-03-29T15:15:58.949Z,4.03
2023-03-29T15:18:36.410Z,4.10
2023-03-29T15:21:05.921Z,2.97
2023-03-29T15:23:41.365Z,3.47
2023-03-29T15:26:12.272Z,2.75
2023-03-29T15:28:49.495Z,3.88
2023-03-29T15:31:23.641Z,2.97
2023-03-29T15:33:53.155Z,2.85
2023-03-29T15:36:22.578Z,3.80
2023-03-29T15:38:52.544Z,3.67
2023-03-29T15:41:23.189Z,3.20
2023-03-29T15:43:52.573Z,2.70
2023-03-29T15:46:22.355Z,2.90
2023-03-29T15:48:51.764Z,2.88
2023-03-29T15:51:21.481Z,3.42
2023-03-29T15:53:50.951Z,3.20
2023-03-29T15:56:23.062Z,3.10
2023-03-29T15:58:52.571Z,2.97
2023-03-29T16:01:23.807Z,2.85
2023-03-29T16:03:53.462Z,3.00
2023-03-29T16:06:24.123Z,2.55
2023-03-29T16:08:54.990Z,2.90
2023-03-29T16:11:27.202Z,2.88
2023-03-29T16:13:57.477Z,3.05
2023-03-29T16:16:27.534Z,2.85
2023-03-29T16:18:56.944Z,3.10
2023-03-29T16:21:27.379Z,2.60
2023-03-29T16:23:57.011Z,2.40
2023-03-29T16:26:26.795Z,2.58
2023-03-29T16:28:56.215Z,2.30
2023-03-29T16:31:27.182Z,2.45
2023-03-29T16:33:56.850Z,3.13
2023-03-29T16:36:26.407Z,2.40
2023-03-29T16:38:55.972Z,3.00
2023-03-29T16:41:25.974Z,2.40
2023-03-29T16:43:56.132Z,2.40
2023-03-29T16:46:25.598Z,2.88
2023-03-29T16:48:55.173Z,2.30
2023-03-29T16:51:24.601Z,2.95
2023-03-29T16:53:54.618Z,2.45
2023-03-29T16:56:23.981Z,2.60
2023-03-29T16:58:53.428Z,2.35
2023-03-29T17:01:22.952Z,2.90
2023-03-29T17:03:52.703Z,3.10
2023-03-29T17:06:22.270Z,3.45
2023-03-29T17:08:51.671Z,3.67
2023-03-29T17:11:23.389Z,3.10
2023-03-29T17:13:52.954Z,3.72
2023-03-29T17:16:22.765Z,2.80
2023-03-29T17:18:52.222Z,2.55
2023-03-29T17:21:21.752Z,2.60
2023-03-29T17:23:51.132Z,2.88
2023-03-29T17:26:20.585Z,3.10
2023-03-29T17:28:49.992Z,2.83
2023-03-29T17:31:19.801Z,2.90
2023-03-29T17:33:52.163Z,3.00
2023-03-29T17:39:02.442Z,2.80
2023-03-29T17:41:32.257Z,3.08
2023-03-29T17:44:01.658Z,2.80
2023-03-29T17:46:31.302Z,2.90
2023-03-29T17:49:00.705Z,2.83
2023-03-29T17:51:30.443Z,3.38
2023-03-29T17:54:00.217Z,3.20
2023-03-29T17:56:29.666Z,2.90
2023-03-29T17:58:59.042Z,3.10
2023-03-29T18:01:28.495Z,3.25
2023-03-29T18:03:57.989Z,3.45
2023-03-29T18:06:27.400Z,3.35
2023-03-29T18:08:57.105Z,2.83
2023-03-29T18:11:27.441Z,2.97
2023-03-29T18:13:57.471Z,2.95
2023-03-29T18:16:26.965Z,2.85
2023-03-29T18:18:56.659Z,3.95
2023-03-29T18:21:26.272Z,2.97
2023-03-29T18:23:57.048Z,2.95
2023-03-29T18:26:26.842Z,2.88
2023-03-29T18:28:56.275Z,3.25
2023-03-29T18:31:25.779Z,2.63
2023-03-29T18:33:55.156Z,2.65
2023-03-29T18:36:25.868Z,3.13
2023-03-29T18:38:56.458Z,2.72
2023-03-29T18:41:26.668Z,2.80
2023-03-29T18:47:13.186Z,2.38
2023-03-29T18:49:43.372Z,2.80
2023-03-29T18:52:12.790Z,3.40
2023-03-29T18:54:42.280Z,2.95
2023-03-29T18:57:11.743Z,2.95
2023-03-29T18:59:41.233Z,3.40
2023-03-29T19:02:10.824Z,2.38
2023-03-29T19:04:40.279Z,3.03
2023-03-29T19:07:09.973Z,2.88
2023-03-29T19:09:39.471Z,2.92
2023-03-29T19:12:09.071Z,2.55
2023-03-29T19:14:38.409Z,2.88
2023-03-29T19:17:07.825Z,2.28
2023-03-29T19:19:37.951Z,3.60
2023-03-29T19:22:07.694Z,3.50
2023-03-29T19:24:37.065Z,3.65
2023-03-29T19:27:06.586Z,3.92
2023-03-29T19:29:36.752Z,3.53
2023-03-29T19:32:06.937Z,3.53
2023-03-29T19:34:36.444Z,3.78
2023-03-29T19:37:05.953Z,3.35
2023-03-29T19:39:35.448Z,4.47
2023-03-29T19:42:04.830Z,4.85
2023-03-29T19:44:34.592Z,4.45
2023-03-29T19:47:04.070Z,3.58
2023-03-29T19:49:33.746Z,4.45
2023-03-29T19:52:03.084Z,6.05
2023-03-29T19:54:32.513Z,4.13
2023-03-29T19:57:02.926Z,3.47
2023-03-29T19:59:32.444Z,4.32
2023-03-29T20:02:02.457Z,4.72
2023-03-29T20:04:33.509Z,3.85
2023-03-29T20:07:03.027Z,3.65
2023-03-29T20:09:32.674Z,4.05
2023-03-29T20:12:02.389Z,3.70
2023-03-29T20:14:31.911Z,4.90
2023-03-29T20:17:01.287Z,3.78
2023-03-29T20:19:30.721Z,3.50
2023-03-29T20:22:00.873Z,3.10
2023-03-29T20:24:31.459Z,3.45
2023-03-29T20:27:00.872Z,2.90
2023-03-29T20:29:30.611Z,2.80
2023-03-29T20:32:00.220Z,3.22
2023-03-29T20:34:29.671Z,3.03
2023-03-29T20:37:01.056Z,3.33
2023-03-29T20:39:31.568Z,3.77
2023-03-29T20:42:01.024Z,2.78
2023-03-29T20:44:32.419Z,3.20
2023-03-29T20:47:08.391Z,3.65
2023-03-29T20:49:39.838Z,4.00
2023-03-29T20:52:21.011Z,4.27
2023-03-29T20:54:50.779Z,3.15
2023-03-29T20:57:21.303Z,4.13
2023-03-29T20:59:51.773Z,4.22
2023-03-29T21:02:23.022Z,3.60
2023-03-29T21:04:53.575Z,3.70
2023-03-29T21:07:23.586Z,3.90
2023-03-29T21:09:53.113Z,3.67
2023-03-29T21:12:23.664Z,3.80
2023-03-29T21:14:53.116Z,3.17
2023-03-29T21:17:22.466Z,3.97
2023-03-29T21:19:52.153Z,3.22
2023-03-29T21:22:22.136Z,3.42
2023-03-29T21:24:51.613Z,3.10
2023-03-29T21:27:21.023Z,3.08
2023-03-29T21:29:50.477Z,3.40
2023-03-29T21:32:19.858Z,3.28
2023-03-29T21:34:49.264Z,2.85
2023-03-29T21:37:18.760Z,3.53
2023-03-29T21:39:48.143Z,3.05
2023-03-29T21:42:17.517Z,2.80
2023-03-29T21:44:46.891Z,3.13
2023-03-29T21:47:16.254Z,2.92
2023-03-29T21:49:45.620Z,3.15
2023-03-29T21:52:14.984Z,2.63
2023-03-29T21:54:44.392Z,3.00
2023-03-29T21:57:13.986Z,3.40
2023-03-29T21:59:43.428Z,2.88
2023-03-29T22:02:12.877Z,2.75
2023-03-29T22:04:42.261Z,3.47
2023-03-29T22:07:12.585Z,2.90
2023-03-29T22:09:42.737Z,3.17
2023-03-29T22:12:12.685Z,3.15
2023-03-29T22:14:42.144Z,3.13
2023-03-29T22:17:12.130Z,3.08
2023-03-29T22:19:42.050Z,2.85
2023-03-29T22:22:14.110Z,2.85
2023-03-29T22:24:44.026Z,3.65
2023-03-29T22:27:13.916Z,2.90
2023-03-29T22:29:43.340Z,3.08
2023-03-29T22:32:12.882Z,2.90
2023-03-29T22:34:42.394Z,3.15
2023-03-29T22:37:11.777Z,3.25
2023-03-29T22:39:41.176Z,3.33
2023-03-29T22:42:10.550Z,2.83
2023-03-29T22:44:39.947Z,2.65
2023-03-29T22:47:09.792Z,3.90
2023-03-29T22:49:39.266Z,3.53
2023-03-29T22:52:08.665Z,2.70
2023-03-29T22:54:38.048Z,2.75
2023-03-29T22:57:07.501Z,2.88
2023-03-29T22:59:36.904Z,2.90
2023-03-29T23:02:06.338Z,3.22
2023-03-29T23:04:36.786Z,3.75
2023-03-29T23:07:06.608Z,3.45
2023-03-29T23:09:36.073Z,2.80
2023-03-29T23:12:05.755Z,2.78
2023-03-29T23:14:35.755Z,2.53
2023-03-29T23:17:05.110Z,2.65
2023-03-29T23:19:34.514Z,3.20
2023-03-29T23:22:03.913Z,3.20
2023-03-29T23:24:33.545Z,2.90
2023-03-29T23:27:03.167Z,3.00
2023-03-29T23:29:34.672Z,3.03
2023-03-29T23:32:04.299Z,2.65
2023-03-29T23:34:33.807Z,2.38
2023-03-29T23:37:03.149Z,2.70
2023-03-29T23:39:32.525Z,2.92
2023-03-29T23:42:01.960Z,3.00
2023-03-29T23:44:31.405Z,2.65
2023-03-29T23:47:01.337Z,3.33
2023-03-29T23:49:30.905Z,2.90
2023-03-29T23:52:00.336Z,1.90
2023-03-29T23:54:29.811Z,2.20
2023-03-29T23:57:00.340Z,2.65
2023-03-29T23:59:30.718Z,2.58
